createdAt,value
2019-01-26T00:00:54.813Z,66.11
2019-01-26T00:01:54.801Z,63.50
2019-01-26T00:02:54.848Z,62.95
2019-01-26T00:03:54.882Z,62.77
2019-01-26T00:04:54.739Z,64.03
2019-01-26T00:05:54.728Z,64.20
2019-01-26T00:06:54.719Z,63.89
2019-01-26T00:07:54.703Z,62.43
2019-01-26T00:08:54.717Z,62.77
2019-01-26T00:09:54.761Z,66.01
2019-01-26T00:10:54.737Z,65.36
2019-01-26T00:11:54.739Z,64.00
2019-01-26T00:12:54.708Z,64.80
2019-01-26T00:13:54.710Z,65.84
2019-01-26T00:14:55.676Z,64.67
2019-01-26T00:15:54.631Z,65.06
2019-01-26T00:16:54.604Z,62.24
2019-01-26T00:17:54.622Z,62.34
2019-01-26T00:18:54.637Z,63.80
2019-01-26T00:19:55.060Z,62.73
2019-01-26T00:20:54.572Z,61.69
2019-01-26T00:21:54.570Z,62.62
2019-01-26T00:22:54.558Z,64.40
2019-01-26T00:23:55.770Z,61.69
2019-01-26T00:24:54.547Z,64.61
2019-01-26T00:25:54.564Z,64.47
2019-01-26T00:26:54.570Z,61.66
2019-01-26T00:27:54.549Z,61.87
2019-01-26T00:28:54.495Z,62.28
2019-01-26T00:29:54.481Z,62.62
2019-01-26T00:30:54.512Z,60.96
2019-01-26T00:31:54.481Z,60.96
2019-01-26T00:32:55.462Z,62.02
2019-01-26T00:33:54.447Z,62.34
2019-01-26T00:34:54.449Z,62.55
2019-01-26T00:35:54.456Z,63.31
2019-01-26T00:36:54.463Z,63.93
2019-01-26T00:37:54.387Z,63.62
2019-01-26T00:38:54.379Z,64.98
2019-01-26T00:39:54.369Z,63.13
2019-01-26T00:40:54.364Z,64.49
2019-01-26T00:41:54.416Z,64.14
2019-01-26T00:42:55.043Z,65.40
2019-01-26T00:43:54.339Z,64.36
2019-01-26T00:44:54.355Z,65.09
2019-01-26T00:45:54.354Z,66.83
2019-01-26T00:46:54.303Z,65.16
2019-01-26T00:47:54.299Z,65.13
2019-01-26T00:48:54.314Z,66.80
2019-01-26T00:49:54.283Z,67.01
2019-01-26T00:50:54.284Z,68.13
2019-01-26T00:51:54.271Z,67.60
2019-01-26T00:52:54.239Z,66.88
2019-01-26T00:53:54.221Z,69.38
2019-01-26T00:54:54.247Z,69.97
2019-01-26T00:55:54.248Z,67.60
2019-01-26T00:56:54.220Z,69.03
2019-01-26T00:57:54.199Z,69.87
2019-01-26T00:58:54.178Z,67.88
2019-01-26T00:59:54.153Z,67.71
2019-01-26T01:00:54.153Z,66.46
2019-01-26T01:01:54.179Z,65.97
2019-01-26T01:02:54.131Z,68.60
2019-01-26T01:03:54.120Z,68.60
2019-01-26T01:04:54.107Z,69.65
2019-01-26T01:05:54.102Z,69.44
2019-01-26T01:06:54.079Z,67.18
2019-01-26T01:07:55.095Z,68.85
2019-01-26T01:08:54.074Z,69.51
2019-01-26T01:09:54.085Z,68.46
2019-01-26T01:10:54.047Z,70.97
2019-01-26T01:11:54.043Z,72.81
2019-01-26T01:12:54.058Z,68.74
2019-01-26T01:13:54.056Z,71.88
2019-01-26T01:14:54.019Z,71.84
2019-01-26T01:15:53.992Z,72.68
2019-01-26T01:16:53.974Z,71.84
2019-01-26T01:17:53.986Z,70.90
2019-01-26T01:18:54.013Z,69.41
2019-01-26T01:19:53.968Z,68.57
2019-01-26T01:20:53.982Z,67.98
2019-01-26T01:21:53.977Z,70.94
2019-01-26T01:22:53.967Z,73.16
2019-01-26T01:23:53.921Z,74.63
2019-01-26T01:24:53.895Z,74.00
2019-01-26T01:25:53.890Z,72.96
2019-01-26T01:26:53.889Z,75.15
2019-01-26T01:27:53.864Z,74.21
2019-01-26T01:28:53.895Z,75.78
2019-01-26T01:29:53.847Z,78.39
2019-01-26T01:30:53.867Z,79.33
2019-01-26T01:31:53.865Z,77.03
2019-01-26T01:32:53.950Z,77.66
2019-01-26T01:33:53.802Z,77.94
2019-01-26T01:34:53.883Z,76.26
2019-01-26T01:35:53.786Z,77.45
2019-01-26T01:36:53.800Z,74.94
2019-01-26T01:37:53.757Z,75.88
2019-01-26T01:38:53.810Z,76.44
2019-01-26T01:39:53.771Z,77.06
2019-01-26T01:40:53.735Z,79.99
2019-01-26T01:41:53.718Z,80.79
2019-01-26T01:42:53.727Z,80.48
2019-01-26T01:43:53.715Z,77.45
2019-01-26T01:44:53.710Z,77.76
2019-01-26T01:45:53.709Z,78.85
2019-01-26T01:46:53.668Z,77.90
2019-01-26T01:47:53.671Z,79.89
2019-01-26T01:48:53.654Z,79.58
2019-01-26T01:49:53.641Z,76.68
2019-01-26T01:50:53.676Z,79.09
2019-01-26T01:51:53.643Z,79.23
2019-01-26T01:52:53.611Z,81.81
2019-01-26T01:53:53.626Z,82.33
2019-01-26T01:54:53.583Z,82.60
2019-01-26T01:55:53.610Z,82.05
2019-01-26T01:56:53.596Z,78.85
2019-01-26T01:57:53.580Z,81.63
2019-01-26T01:58:53.562Z,79.22
2019-01-26T01:59:53.571Z,78.91
2019-01-26T02:00:53.547Z,81.11
2019-01-26T02:01:53.549Z,80.27
2019-01-26T02:02:53.520Z,79.54
2019-01-26T02:03:53.485Z,77.14
2019-01-26T02:04:53.512Z,79.12
2019-01-26T02:05:53.479Z,81.11
2019-01-26T02:06:53.496Z,79.64
2019-01-26T02:07:53.459Z,77.14
2019-01-26T02:08:53.438Z,77.45
2019-01-26T02:09:53.434Z,77.03
2019-01-26T02:10:53.416Z,79.54
2019-01-26T02:11:53.409Z,76.82
2019-01-26T02:12:53.459Z,77.17
2019-01-26T02:13:53.388Z,77.31
2019-01-26T02:14:53.400Z,79.19
2019-01-26T02:15:53.374Z,80.03
2019-01-26T02:16:53.355Z,81.07
2019-01-26T02:17:53.347Z,80.13
2019-01-26T02:18:53.345Z,79.93
2019-01-26T02:19:53.355Z,79.61
2019-01-26T02:20:53.308Z,80.76
2019-01-26T02:21:53.309Z,80.35
2019-01-26T02:22:53.295Z,79.72
2019-01-26T02:23:53.285Z,82.54
2019-01-26T02:24:53.328Z,79.09
2019-01-26T02:25:53.294Z,79.02
2019-01-26T02:26:53.264Z,80.90
2019-01-26T02:27:53.241Z,80.59
2019-01-26T02:28:53.254Z,82.06
2019-01-26T02:29:53.247Z,82.58
2019-01-26T02:30:53.204Z,82.58
2019-01-26T02:31:53.214Z,83.00
2019-01-26T02:32:54.687Z,81.01
2019-01-26T02:33:53.207Z,83.42
2019-01-26T02:34:53.191Z,85.09
2019-01-26T02:35:53.194Z,81.99
2019-01-26T02:36:53.160Z,83.25
2019-01-26T02:37:53.166Z,84.81
2019-01-26T02:38:53.161Z,85.02
2019-01-26T02:39:53.118Z,83.56
2019-01-26T02:40:53.131Z,83.35
2019-01-26T02:41:53.115Z,85.02
2019-01-26T02:42:53.097Z,84.71
2019-01-26T02:43:53.144Z,85.55
2019-01-26T02:44:53.152Z,87.96
2019-01-26T02:45:53.059Z,87.96
2019-01-26T02:46:57.959Z,85.19
2019-01-26T02:47:54.031Z,85.30
2019-01-26T02:48:53.048Z,87.08
2019-01-26T02:49:53.037Z,87.56
2019-01-26T02:50:53.004Z,85.99
2019-01-26T02:51:52.991Z,86.37
2019-01-26T02:52:52.981Z,85.85
2019-01-26T02:53:52.973Z,83.76
2019-01-26T02:54:52.950Z,84.80
2019-01-26T02:55:52.961Z,85.60
2019-01-26T02:56:52.936Z,85.08
2019-01-26T02:57:52.927Z,83.72
2019-01-26T02:58:52.927Z,83.93
2019-01-26T02:59:52.920Z,84.83
2019-01-26T03:00:52.917Z,85.46
2019-01-26T03:01:52.889Z,84.69
2019-01-26T03:02:52.872Z,82.18
2019-01-26T03:03:52.873Z,81.56
2019-01-26T03:04:52.877Z,81.13
2019-01-26T03:05:52.842Z,82.70
2019-01-26T03:06:52.886Z,83.64
2019-01-26T03:07:52.817Z,82.91
2019-01-26T03:08:52.835Z,83.85
2019-01-26T03:09:52.819Z,85.00
2019-01-26T03:10:52.789Z,83.01
2019-01-26T03:11:52.863Z,84.96
2019-01-26T03:12:52.787Z,84.96
2019-01-26T03:13:52.774Z,83.36
2019-01-26T03:14:52.743Z,83.04
2019-01-26T03:15:52.738Z,81.59
2019-01-26T03:16:52.729Z,81.93
2019-01-26T03:17:52.753Z,82.94
2019-01-26T03:18:52.705Z,82.25
2019-01-26T03:19:52.699Z,82.67
2019-01-26T03:20:52.699Z,82.56
2019-01-26T03:21:52.711Z,83.71
2019-01-26T03:22:52.695Z,83.67
2019-01-26T03:23:52.697Z,79.08
2019-01-26T03:24:52.637Z,79.43
2019-01-26T03:25:52.633Z,81.66
2019-01-26T03:26:52.637Z,83.12
2019-01-26T03:27:52.646Z,84.79
2019-01-26T03:28:52.644Z,82.81
2019-01-26T03:29:52.619Z,82.29
2019-01-26T03:30:52.600Z,81.07
2019-01-26T03:31:52.575Z,81.00
2019-01-26T03:32:52.594Z,83.72
2019-01-26T03:33:52.552Z,84.97
2019-01-26T03:34:52.574Z,82.99
2019-01-26T03:35:52.526Z,85.08
2019-01-26T03:36:52.529Z,84.87
2019-01-26T03:37:52.551Z,87.80
2019-01-26T03:38:52.527Z,85.50
2019-01-26T03:39:52.500Z,84.14
2019-01-26T03:40:52.486Z,85.18
2019-01-26T03:41:52.468Z,85.50
2019-01-26T03:42:52.457Z,84.77
2019-01-26T03:43:52.509Z,84.73
2019-01-26T03:44:52.429Z,84.87
2019-01-26T03:45:52.418Z,86.08
2019-01-26T03:46:52.415Z,86.40
2019-01-26T03:47:52.397Z,84.00
2019-01-26T03:48:52.391Z,83.26
2019-01-26T03:49:53.696Z,83.51
2019-01-26T03:50:52.373Z,82.89
2019-01-26T03:51:52.364Z,85.29
2019-01-26T03:52:52.348Z,83.20
2019-01-26T03:53:52.365Z,85.08
2019-01-26T03:54:52.374Z,83.34
2019-01-26T03:55:52.351Z,84.70
2019-01-26T03:56:52.359Z,85.96
2019-01-26T03:57:52.310Z,85.85
2019-01-26T03:58:52.301Z,85.96
2019-01-26T03:59:52.280Z,86.06
2019-01-26T04:00:52.298Z,84.70
2019-01-26T04:01:52.261Z,85.33
2019-01-26T04:02:52.255Z,85.58
2019-01-26T04:03:52.242Z,87.10
2019-01-26T04:04:52.223Z,86.37
2019-01-26T04:05:52.254Z,85.85
2019-01-26T04:06:52.203Z,85.22
2019-01-26T04:07:52.197Z,85.74
2019-01-26T04:08:52.189Z,86.47
2019-01-26T04:09:52.177Z,85.99
2019-01-26T04:10:52.181Z,86.10
2019-01-26T04:11:52.152Z,86.41
2019-01-26T04:12:52.207Z,86.93
2019-01-26T04:13:52.130Z,85.99
2019-01-26T04:14:52.124Z,86.52
2019-01-26T04:15:52.187Z,86.72
2019-01-26T04:16:52.119Z,88.71
2019-01-26T04:17:52.081Z,88.78
2019-01-26T04:18:52.084Z,87.59
2019-01-26T04:19:52.112Z,86.44
2019-01-26T04:20:52.101Z,84.91
2019-01-26T04:21:52.073Z,85.85
2019-01-26T04:22:52.104Z,85.85
2019-01-26T04:23:52.041Z,87.10
2019-01-26T04:24:52.009Z,87.27
2019-01-26T04:25:52.024Z,86.79
2019-01-26T04:26:52.019Z,87.17
2019-01-26T04:27:52.003Z,86.75
2019-01-26T04:28:51.989Z,86.02
2019-01-26T04:29:51.958Z,86.02
2019-01-26T04:30:51.947Z,86.23
2019-01-26T04:31:51.979Z,86.96
2019-01-26T04:32:51.934Z,87.17
2019-01-26T04:33:51.928Z,87.07
2019-01-26T04:34:51.921Z,87.59
2019-01-26T04:35:51.911Z,87.07
2019-01-26T04:36:51.889Z,84.56
2019-01-26T04:37:51.950Z,85.91
2019-01-26T04:38:51.889Z,87.07
2019-01-26T04:39:51.871Z,86.96
2019-01-26T04:40:51.864Z,85.39
2019-01-26T04:41:51.868Z,85.60
2019-01-26T04:42:51.826Z,86.44
2019-01-26T04:43:51.870Z,86.75
2019-01-26T04:44:51.860Z,87.69
2019-01-26T04:45:51.803Z,87.27
2019-01-26T04:46:51.809Z,87.07
2019-01-26T04:47:51.785Z,87.17
2019-01-26T04:48:51.765Z,85.60
2019-01-26T04:49:51.761Z,85.60
2019-01-26T04:50:51.739Z,86.33
2019-01-26T04:51:51.740Z,86.13
2019-01-26T04:52:51.814Z,86.65
2019-01-26T04:53:51.739Z,87.07
2019-01-26T04:54:51.700Z,86.85
2019-01-26T04:55:51.699Z,87.27
2019-01-26T04:56:51.676Z,87.27
2019-01-26T04:57:51.706Z,86.23
2019-01-26T04:58:51.672Z,86.85
2019-01-26T04:59:51.685Z,87.96
2019-01-26T05:00:51.637Z,88.39
2019-01-26T05:01:51.625Z,87.96
2019-01-26T05:02:51.693Z,87.82
2019-01-26T05:03:51.613Z,86.77
2019-01-26T05:04:51.620Z,85.94
2019-01-26T05:05:51.590Z,86.99
2019-01-26T05:06:51.618Z,86.25
2019-01-26T05:09:09.150Z,85.00
2019-01-26T05:10:09.128Z,85.94
2019-01-26T05:11:09.113Z,86.25
2019-01-26T05:12:09.097Z,87.19
2019-01-26T05:13:09.118Z,86.99
2019-01-26T05:14:09.084Z,85.11
2019-01-26T05:15:09.072Z,86.88
2019-01-26T05:16:09.067Z,86.99
2019-01-26T05:17:09.093Z,86.46
2019-01-26T05:18:09.035Z,86.84
2019-01-26T05:19:09.034Z,87.05
2019-01-26T05:20:09.022Z,86.21
2019-01-26T05:21:09.011Z,86.84
2019-01-26T05:22:08.995Z,86.11
2019-01-26T05:23:09.016Z,87.22
2019-01-26T05:24:08.973Z,88.47
2019-01-26T05:25:08.969Z,89.37
2019-01-26T05:26:08.960Z,89.89
2019-01-26T05:27:08.953Z,88.22
2019-01-26T05:28:08.958Z,86.87
2019-01-26T05:29:08.920Z,87.35
2019-01-26T05:30:08.911Z,84.67
2019-01-26T05:31:08.903Z,86.76
2019-01-26T05:32:08.895Z,88.91
2019-01-26T05:33:08.911Z,89.85
2019-01-26T05:34:08.882Z,90.37
2019-01-26T05:35:08.858Z,90.75
2019-01-26T05:36:08.849Z,86.16
2019-01-26T05:37:08.846Z,85.22
2019-01-26T05:38:08.864Z,84.74
2019-01-26T05:39:08.829Z,85.58
2019-01-26T05:40:08.815Z,85.10
2019-01-26T05:41:08.822Z,86.97
2019-01-26T05:42:08.792Z,89.22
2019-01-26T05:43:08.783Z,89.32
2019-01-26T05:44:08.811Z,85.58
2019-01-26T05:45:08.766Z,86.10
2019-01-26T05:46:08.742Z,86.83
2019-01-26T05:47:08.735Z,87.35
2019-01-26T05:48:08.728Z,87.10
2019-01-26T05:49:08.721Z,88.45
2019-01-26T05:50:08.731Z,87.93
2019-01-26T05:51:08.718Z,89.04
2019-01-26T05:52:08.687Z,87.06
2019-01-26T05:53:08.682Z,85.71
2019-01-26T05:54:08.709Z,84.25
2019-01-26T05:55:08.665Z,84.14
2019-01-26T05:56:08.651Z,86.16
2019-01-26T05:57:08.633Z,86.89
2019-01-26T05:58:08.619Z,86.99
2019-01-26T05:59:08.605Z,86.96
2019-01-26T06:00:08.619Z,85.50
2019-01-26T06:01:08.621Z,86.43
2019-01-26T06:02:08.669Z,84.45
2019-01-26T06:03:08.641Z,84.39
2019-01-26T06:04:08.577Z,84.18
2019-01-26T06:05:08.576Z,85.33
2019-01-26T06:06:08.541Z,86.79
2019-01-26T06:07:08.583Z,85.96
2019-01-26T06:08:08.562Z,85.64
2019-01-26T06:09:08.555Z,85.33
2019-01-26T06:10:08.522Z,86.58
2019-01-26T06:11:08.538Z,85.33
2019-01-26T06:12:08.489Z,86.89
2019-01-26T06:13:08.511Z,87.93
2019-01-26T06:14:08.478Z,86.68
2019-01-26T06:15:08.494Z,87.48
2019-01-26T06:16:08.471Z,85.60
2019-01-26T06:17:08.437Z,85.91
2019-01-26T06:18:08.430Z,88.17
2019-01-26T06:19:08.413Z,84.98
2019-01-26T06:20:08.411Z,84.45
2019-01-26T06:21:08.424Z,85.88
2019-01-26T06:22:08.427Z,87.02
2019-01-26T06:23:08.368Z,86.81
2019-01-26T06:24:08.360Z,86.57
2019-01-26T06:25:08.358Z,85.46
2019-01-26T06:26:08.337Z,85.56
2019-01-26T06:27:08.363Z,85.42
2019-01-26T06:28:08.323Z,84.90
2019-01-26T06:29:08.311Z,85.83
2019-01-26T06:30:08.293Z,84.17
2019-01-26T06:31:08.283Z,83.96
2019-01-26T06:32:08.293Z,82.40
2019-01-26T06:33:08.276Z,83.34
2019-01-26T06:34:08.257Z,84.42
2019-01-26T06:35:08.249Z,83.23
2019-01-26T06:36:08.296Z,82.54
2019-01-26T06:37:08.238Z,82.96
2019-01-26T06:38:08.280Z,83.58
2019-01-26T06:39:08.780Z,84.52
2019-01-26T06:40:08.209Z,84.83
2019-01-26T06:41:08.195Z,84.83
2019-01-26T06:42:08.185Z,83.94
2019-01-26T06:43:08.160Z,84.98
2019-01-26T06:44:08.170Z,84.25
2019-01-26T06:45:08.181Z,84.25
2019-01-26T06:46:08.123Z,84.56
2019-01-26T06:47:08.155Z,84.98
2019-01-26T06:48:08.130Z,85.02
2019-01-26T06:49:08.142Z,85.43
2019-01-26T06:50:08.092Z,85.74
2019-01-26T06:51:08.083Z,85.64
2019-01-26T06:52:08.057Z,86.16
2019-01-26T06:53:08.089Z,86.96
2019-01-26T06:54:08.104Z,86.54
2019-01-26T06:55:08.022Z,86.96
2019-01-26T06:56:08.022Z,84.87
2019-01-26T06:57:08.095Z,84.66
2019-01-26T06:58:07.999Z,84.77
2019-01-26T06:59:08.021Z,84.98
2019-01-26T07:00:07.985Z,85.22
2019-01-26T07:01:07.971Z,85.96
2019-01-26T07:02:08.030Z,86.47
2019-01-26T07:03:07.959Z,87.76
2019-01-26T07:04:07.985Z,88.35
2019-01-26T07:05:07.927Z,88.08
2019-01-26T07:06:07.914Z,88.91
2019-01-26T07:07:07.943Z,88.81
2019-01-26T07:08:07.908Z,89.22
2019-01-26T07:09:07.887Z,89.32
2019-01-26T07:10:07.868Z,91.10
2019-01-26T07:11:07.868Z,90.47
2019-01-26T07:12:07.853Z,90.12
2019-01-26T07:13:07.862Z,90.22
2019-01-26T07:14:07.856Z,90.33
2019-01-26T07:15:07.819Z,91.16
2019-01-26T07:16:07.804Z,91.75
2019-01-26T07:17:07.804Z,91.96
2019-01-26T07:18:09.447Z,93.05
2019-01-26T07:19:07.816Z,92.80
2019-01-26T07:20:07.799Z,91.66
2019-01-26T07:21:07.757Z,90.89
2019-01-26T07:22:07.745Z,90.58
2019-01-26T07:23:07.747Z,91.20
2019-01-26T07:24:07.741Z,90.54
2019-01-26T07:25:08.548Z,89.60
2019-01-26T07:26:07.711Z,90.60
2019-01-26T07:27:07.689Z,89.94
2019-01-26T07:28:07.680Z,89.31
2019-01-26T07:29:07.672Z,88.90
2019-01-26T07:30:07.694Z,88.28
2019-01-26T07:31:07.663Z,87.30
2019-01-26T07:32:07.647Z,86.47
2019-01-26T07:33:07.624Z,87.19
2019-01-26T07:34:07.614Z,87.30
2019-01-26T07:35:07.611Z,86.36
2019-01-26T07:36:07.616Z,86.43
2019-01-26T07:37:07.587Z,86.64
2019-01-26T07:38:13.477Z,86.12
2019-01-26T07:39:08.572Z,86.33
2019-01-26T07:40:07.562Z,86.29
2019-01-26T07:41:07.574Z,86.70
2019-01-26T07:42:07.547Z,86.39
2019-01-26T07:43:07.597Z,85.25
2019-01-26T07:44:07.564Z,85.35
2019-01-26T07:45:07.497Z,84.73
2019-01-26T07:46:07.500Z,84.21
2019-01-26T07:47:07.526Z,81.82
2019-01-26T07:48:07.480Z,81.82
2019-01-26T07:49:07.492Z,83.22
2019-01-26T07:50:07.465Z,83.42
2019-01-26T07:51:07.569Z,82.53
2019-01-26T07:52:07.451Z,84.39
2019-01-26T07:53:07.436Z,83.77
2019-01-26T07:54:07.440Z,84.53
2019-01-26T07:55:07.398Z,85.05
2019-01-26T07:56:07.383Z,84.33
2019-01-26T07:57:07.379Z,84.64
2019-01-26T07:58:07.366Z,84.53
2019-01-26T07:59:07.370Z,84.47
2019-01-26T08:00:07.375Z,85.34
2019-01-26T08:01:07.339Z,86.27
2019-01-26T08:02:07.340Z,86.63
2019-01-26T08:03:07.315Z,86.94
2019-01-26T08:04:07.315Z,88.29
2019-01-26T08:05:07.336Z,88.50
2019-01-26T08:06:07.284Z,89.33
2019-01-26T08:07:07.292Z,88.35
2019-01-26T08:08:07.261Z,88.29
2019-01-26T08:09:07.297Z,88.50
2019-01-26T08:10:07.242Z,88.29
2019-01-26T08:11:07.227Z,89.23
2019-01-26T08:12:07.222Z,88.50
2019-01-26T08:13:07.208Z,89.12
2019-01-26T08:14:07.192Z,89.02
2019-01-26T08:15:07.279Z,88.40
2019-01-26T08:16:07.181Z,89.02
2019-01-26T08:17:07.185Z,88.92
2019-01-26T08:18:07.158Z,89.06
2019-01-26T08:19:07.146Z,88.64
2019-01-26T08:20:07.162Z,90.20
2019-01-26T08:21:07.141Z,90.10
2019-01-26T08:22:07.148Z,90.52
2019-01-26T08:23:07.100Z,90.41
2019-01-26T08:24:07.096Z,90.58
2019-01-26T08:25:07.079Z,89.64
2019-01-26T08:26:07.075Z,90.37
2019-01-26T08:27:07.050Z,89.64
2019-01-26T08:28:07.127Z,90.16
2019-01-26T08:29:07.052Z,90.58
2019-01-26T08:30:07.031Z,90.47
2019-01-26T08:31:07.013Z,90.79
2019-01-26T08:32:07.003Z,89.85
2019-01-26T08:33:07.019Z,89.08
2019-01-26T08:34:06.990Z,89.95
2019-01-26T08:35:06.976Z,89.18
2019-01-26T08:36:06.980Z,88.67
2019-01-26T08:37:06.971Z,89.29
2019-01-26T08:38:06.978Z,88.35
2019-01-26T08:39:06.945Z,88.98
2019-01-26T08:40:06.916Z,88.98
2019-01-26T08:41:06.911Z,89.64
2019-01-26T08:42:06.916Z,89.12
2019-01-26T08:43:06.922Z,89.79
2019-01-26T08:44:06.887Z,90.31
2019-01-26T08:45:06.997Z,91.35
2019-01-26T08:46:07.219Z,91.77
2019-01-26T08:47:07.000Z,91.35
2019-01-26T08:48:06.860Z,90.93
2019-01-26T08:49:08.759Z,90.41
2019-01-26T08:50:07.025Z,91.35
2019-01-26T08:51:07.654Z,91.25
2019-01-26T08:52:07.050Z,91.20
2019-01-26T08:53:06.971Z,91.10
2019-01-26T08:54:06.815Z,91.10
2019-01-26T08:55:06.800Z,91.00
2019-01-26T08:56:06.782Z,90.79
2019-01-26T08:57:06.739Z,89.75
2019-01-26T08:58:06.743Z,89.12
2019-01-26T08:59:06.833Z,90.33
2019-01-26T09:00:06.784Z,89.70
2019-01-26T09:01:06.731Z,90.23
2019-01-26T09:02:06.702Z,90.23
2019-01-26T09:03:06.682Z,89.43
2019-01-26T09:04:06.666Z,90.47
2019-01-26T09:05:06.659Z,90.79
2019-01-26T09:06:06.740Z,90.95
2019-01-26T09:07:06.638Z,90.75
2019-01-26T09:08:06.630Z,90.54
2019-01-26T09:09:06.654Z,89.85
2019-01-26T09:10:06.600Z,90.47
2019-01-26T09:11:06.597Z,90.79
2019-01-26T09:12:06.605Z,91.00
2019-01-26T09:13:06.600Z,90.89
2019-01-26T09:14:06.574Z,90.95
2019-01-26T09:15:06.564Z,90.85
2019-01-26T09:16:06.559Z,90.54
2019-01-26T09:17:06.575Z,89.46
2019-01-26T09:18:06.516Z,88.94
2019-01-26T09:19:06.514Z,88.94
2019-01-26T09:20:06.505Z,88.84
2019-01-26T09:21:06.487Z,89.36
2019-01-26T09:22:06.498Z,88.84
2019-01-26T09:23:06.523Z,89.00
2019-01-26T09:24:06.455Z,88.94
2019-01-26T09:25:06.453Z,88.21
2019-01-26T09:26:06.445Z,88.62
2019-01-26T09:27:06.437Z,89.04
2019-01-26T09:28:06.459Z,88.84
2019-01-26T09:29:06.411Z,88.94
2019-01-26T09:30:06.401Z,89.98
2019-01-26T09:31:06.381Z,89.21
2019-01-26T09:32:06.371Z,89.00
2019-01-26T09:33:06.364Z,88.75
2019-01-26T09:34:06.380Z,89.00
2019-01-26T09:35:06.344Z,88.13
2019-01-26T09:36:06.325Z,88.65
2019-01-26T09:37:06.325Z,88.34
2019-01-26T09:38:06.327Z,86.99
2019-01-26T09:39:06.334Z,86.68
2019-01-26T09:40:06.316Z,86.99
2019-01-26T09:41:06.281Z,86.88
2019-01-26T09:42:06.311Z,86.57
2019-01-26T09:43:06.294Z,86.16
2019-01-26T09:44:06.356Z,86.68
2019-01-26T09:45:06.239Z,87.19
2019-01-26T09:46:06.228Z,86.99
2019-01-26T09:47:06.225Z,86.64
2019-01-26T09:48:06.202Z,87.12
2019-01-26T09:49:06.217Z,86.54
2019-01-26T09:50:06.188Z,86.22
2019-01-26T09:51:06.172Z,86.68
2019-01-26T09:52:06.170Z,86.64
2019-01-26T09:53:06.227Z,87.09
2019-01-26T09:54:06.190Z,88.13
2019-01-26T09:55:06.167Z,87.78
2019-01-26T09:56:06.118Z,88.09
2019-01-26T09:57:06.163Z,88.09
2019-01-26T09:58:06.170Z,86.22
2019-01-26T09:59:06.178Z,86.12
2019-01-26T10:00:06.142Z,86.22
2019-01-26T10:01:06.161Z,86.33
2019-01-26T10:02:06.061Z,85.60
2019-01-26T10:03:06.112Z,86.64
2019-01-26T10:04:06.037Z,86.74
2019-01-26T10:05:06.026Z,86.33
2019-01-26T10:06:06.062Z,86.43
2019-01-26T10:07:06.130Z,86.12
2019-01-26T10:08:06.036Z,86.36
2019-01-26T10:09:06.008Z,86.54
2019-01-26T10:10:05.973Z,86.43
2019-01-26T10:11:05.960Z,86.54
2019-01-26T10:12:05.973Z,86.08
2019-01-26T10:13:05.939Z,86.39
2019-01-26T10:14:05.930Z,85.71
2019-01-26T10:15:05.918Z,85.66
2019-01-26T10:16:05.915Z,85.25
2019-01-26T10:17:05.937Z,85.66
2019-01-26T10:18:05.892Z,84.90
2019-01-26T10:19:05.882Z,85.11
2019-01-26T10:20:05.866Z,84.59
2019-01-26T10:21:05.948Z,85.11
2019-01-26T10:22:05.840Z,84.17
2019-01-26T10:23:05.875Z,84.69
2019-01-26T10:24:05.834Z,84.38
2019-01-26T10:25:05.813Z,85.11
2019-01-26T10:26:05.799Z,84.80
2019-01-26T10:27:05.786Z,84.69
2019-01-26T10:28:05.798Z,84.28
2019-01-26T10:29:05.807Z,84.80
2019-01-26T10:30:05.775Z,84.86
2019-01-26T10:31:05.751Z,84.13
2019-01-26T10:32:05.751Z,84.38
2019-01-26T10:33:05.734Z,84.23
2019-01-26T10:34:05.739Z,84.65
2019-01-26T10:35:05.706Z,84.34
2019-01-26T10:36:05.699Z,84.34
2019-01-26T10:37:05.698Z,84.38
2019-01-26T10:38:05.726Z,84.03
2019-01-26T10:39:05.708Z,84.03
2019-01-26T10:40:05.646Z,84.03
2019-01-26T10:41:05.653Z,84.59
2019-01-26T10:42:05.638Z,84.65
2019-01-26T10:43:05.636Z,84.38
2019-01-26T10:44:05.900Z,84.69
2019-01-26T10:45:05.603Z,83.97
2019-01-26T10:46:05.590Z,83.86
2019-01-26T10:47:05.580Z,84.69
2019-01-26T10:48:05.575Z,84.80
2019-01-26T10:49:05.558Z,84.96
2019-01-26T10:50:05.594Z,83.97
2019-01-26T10:51:05.542Z,84.65
2019-01-26T10:52:05.527Z,84.65
2019-01-26T10:53:05.512Z,83.72
2019-01-26T10:54:05.506Z,84.55
2019-01-26T10:55:05.523Z,83.72
2019-01-26T10:56:05.491Z,84.23
2019-01-26T10:57:05.478Z,84.09
2019-01-26T10:58:05.457Z,84.09
2019-01-26T10:59:05.460Z,83.72
2019-01-26T11:00:05.476Z,84.41
2019-01-26T11:01:05.462Z,84.20
2019-01-26T11:02:06.833Z,83.16
2019-01-26T11:03:05.423Z,83.68
2019-01-26T11:04:05.403Z,84.20
2019-01-26T11:05:05.492Z,83.68
2019-01-26T11:06:05.412Z,83.85
2019-01-26T11:07:05.419Z,82.71
2019-01-26T11:08:05.356Z,83.44
2019-01-26T11:09:05.355Z,82.95
2019-01-26T11:10:05.344Z,83.99
2019-01-26T11:11:05.348Z,83.64
2019-01-26T11:12:05.416Z,83.12
2019-01-26T11:13:05.348Z,82.95
2019-01-26T11:14:05.309Z,82.65
2019-01-26T11:15:05.337Z,82.95
2019-01-26T11:16:05.332Z,84.41
2019-01-26T11:17:05.350Z,83.16
2019-01-26T11:18:05.347Z,83.58
2019-01-26T11:19:08.031Z,83.68
2019-01-26T11:20:05.289Z,83.99
2019-01-26T11:21:05.256Z,83.89
2019-01-26T11:22:05.299Z,83.89
2019-01-26T11:23:05.208Z,84.20
2019-01-26T11:24:05.231Z,83.68
2019-01-26T11:25:05.175Z,83.06
2019-01-26T11:26:05.170Z,84.27
2019-01-26T11:27:05.168Z,84.16
2019-01-26T11:28:05.231Z,84.37
2019-01-26T11:29:05.335Z,82.71
2019-01-26T11:30:05.179Z,83.12
2019-01-26T11:31:05.152Z,82.40
2019-01-26T11:32:05.149Z,81.95
2019-01-26T11:33:05.903Z,82.81
2019-01-26T11:34:05.183Z,82.71
2019-01-26T11:35:05.820Z,82.81
2019-01-26T11:36:05.172Z,82.29
2019-01-26T11:37:05.057Z,81.99
2019-01-26T11:38:05.202Z,82.92
2019-01-26T11:39:05.031Z,82.19
2019-01-26T11:40:05.106Z,82.88
2019-01-26T11:41:05.079Z,82.78
2019-01-26T11:42:05.112Z,82.26
2019-01-26T11:43:05.002Z,81.54
2019-01-26T11:44:05.002Z,82.09
2019-01-26T11:45:04.992Z,81.78
2019-01-26T11:46:04.956Z,82.29
2019-01-26T11:47:06.090Z,82.92
2019-01-26T11:48:04.980Z,81.82
2019-01-26T11:49:05.047Z,83.06
2019-01-26T11:50:04.931Z,82.92
2019-01-26T11:51:04.998Z,82.75
2019-01-26T11:52:04.889Z,82.54
2019-01-26T11:53:05.825Z,83.06
2019-01-26T11:54:04.926Z,84.09
2019-01-26T11:55:04.898Z,84.06
2019-01-26T11:56:04.869Z,82.44
2019-01-26T11:57:04.892Z,84.09
2019-01-26T11:58:04.988Z,83.37
2019-01-26T11:59:04.943Z,83.89
2019-01-26T12:00:04.809Z,84.20
2019-01-26T12:01:04.815Z,83.58
2019-01-26T12:02:04.785Z,83.99
2019-01-26T12:03:04.833Z,83.06
2019-01-26T12:04:04.788Z,83.89
2019-01-26T12:05:04.849Z,83.99
2019-01-26T12:06:04.747Z,83.78
2019-01-26T12:07:04.746Z,84.61
2019-01-26T12:08:04.728Z,84.30
2019-01-26T12:09:04.836Z,83.68
2019-01-26T12:10:04.717Z,83.37
2019-01-26T12:11:04.700Z,83.16
2019-01-26T12:12:04.695Z,83.58
2019-01-26T12:13:04.687Z,84.47
2019-01-26T12:14:04.759Z,83.33
2019-01-26T12:15:04.709Z,83.33
2019-01-26T12:16:04.657Z,84.47
2019-01-26T12:17:04.736Z,83.54
2019-01-26T12:18:04.622Z,82.40
2019-01-26T12:19:04.691Z,82.92
2019-01-26T12:20:04.615Z,83.12
2019-01-26T12:21:05.904Z,82.88
2019-01-26T12:22:04.626Z,81.74
2019-01-26T12:23:04.616Z,81.99
2019-01-26T12:24:04.551Z,82.50
2019-01-26T12:25:04.550Z,83.02
2019-01-26T12:26:04.546Z,82.09
2019-01-26T12:27:04.551Z,82.92
2019-01-26T12:28:04.514Z,84.16
2019-01-26T12:29:04.496Z,84.27
2019-01-26T12:30:04.501Z,83.33
2019-01-26T12:31:04.487Z,82.29
2019-01-26T12:32:04.594Z,83.02
2019-01-26T12:33:04.455Z,84.30
2019-01-26T12:34:04.449Z,83.37
2019-01-26T12:35:04.434Z,83.26
2019-01-26T12:36:04.436Z,83.72
2019-01-26T12:37:04.423Z,84.20
2019-01-26T12:38:04.436Z,84.09
2019-01-26T12:39:04.403Z,83.89
2019-01-26T12:40:04.420Z,84.27
2019-01-26T12:41:04.377Z,83.33
2019-01-26T12:42:04.368Z,83.33
2019-01-26T12:43:04.436Z,83.85
2019-01-26T12:44:04.336Z,83.61
2019-01-26T12:45:04.377Z,83.19
2019-01-26T12:46:04.343Z,82.88
2019-01-26T12:47:04.312Z,82.98
2019-01-26T12:48:04.387Z,81.74
2019-01-26T12:49:04.805Z,82.67
2019-01-26T12:50:04.397Z,81.26
2019-01-26T12:51:04.272Z,82.71
2019-01-26T12:52:04.279Z,83.12
2019-01-26T12:53:04.278Z,82.44
2019-01-26T12:54:04.241Z,82.75